Kuggoren, Sweden

7:02 AM CEST on September 21, 2014 (GMT +0200)
Lonnanger, Nordanstig | Change Station
CLOSE
Current Station
Personal Weather Station
Location: Lonnanger, GäVLEBORG COUNTY
Elevation: 34 ft
Nearby Weather Stations

Elev 34 ft 61.93 °N, 17.31 °E | Updated 28 minutes ago

Light Rain
Light Rain
50.4 °F
Feels Like 50.4 °F
N
0.0
Wind Variable Wind from SW
Gusts 0.0 mph

Today
High -- | Low -- °F
--% Chance of Precip.
Yesterday
High -- | Low -- °F
Precip. -- in
6:30 AM 6:54 PM
Waning Crescent, 8% visible
Pressure 29.74 in
Visibility 3.1 miles
Clouds Mostly Cloudy 4500 ft
Overcast 6400 ft
Dew Point 49 °F
Humidity 96%
Rainfall 0.00 in
Snow Depth Not available.
UV 0 out of 12
Pollen Not available.
Air Quality Not available.
Flu Activity Not available.
METAR ESNN 210450Z AUTO 00000KT 5000 -RA BKN045/// OVC064/// 10/09 Q1007

More Conditions Fewer Conditions

Pressure 29.74 in
Visibility 3.1 miles
Clouds Mostly Cloudy 4500 ft
Overcast 6400 ft
Dew Point 49 °F
Humidity 96%
Rainfall 0.00 in
Snow Depth Not available.
UV 0 out of 12
Pollen Not available.
Air Quality Not available.
Flu Activity Not available.
METAR ESNN 210450Z AUTO 00000KT 5000 -RA BKN045/// OVC064/// 10/09 Q1007

More Conditions Fewer Conditions

10-Day Weather Forecast

Almanac

Astronomy

Sep. 21, 2014 Rise Set
Actual Time 6:30 AM CEST 6:54 PM CEST
Civil Twilight 5:46 AM CEST 7:37 PM CEST
Nautical Twilight 4:52 AM CEST 8:31 PM CEST
Astronomical Twilight 3:52 AM CEST 9:30 PM CEST
Moon 3:10 AM CEST 5:48 PM CEST
Length of Visible Light 13h 51m
Length of Day
12h 23m
Tomorrow will be 5m 47s shorter.
Waning Crescent, 8% of the Moon is Illuminated
Today
Waning Crescent
Sep 24
New
Oct 1
First Quarter
Oct 8
Full
Oct 15
Last Quarter

Yesterday's Extremes

Country Highs Country Lows

Community

WunderPhotos

Upload Photos

1,755,091 photos uploaded!

Nearby

Snow Depth

Not available.

Earthquake Activity

City Distance Mag. Time & Date
No recent earthquake activity has been reported nearby.
Minimum magnitude displayed is 2.5.

Coastal Water Temperatures

Place Temperature
No Stations Reporting

Nearby Weather Stations